PWSweather.com
Personal Weather Stations
Station Observations
SUBOTICARS
SuboticaYU

SuboticaYU

Lat: 46.1296717, Lon: 19.641551

Elevation: 361

Station Type: Nexus

http://sumeteo.info

Latest ConditionsUpdated 5:00:01 AM GMT+01:01 Friday, May 29, 2015
Currently Today's Max Today's Min Today's Average
Temperature 40.8°F4.9°C 42.6°F5.9°C 38.7°F3.7°C 40.3°F4.6°C
Dew Point 34.5°F1.4°C 35.2°F1.8°C 32.1°F0.1°C 33.5°F0.8°C
Winds Calm Calm Calm NNWCalm NNW - Calm Calm
Wind Gusts -- -- - -
Humidity 78% 78% 75% 77%
Pressure 30.05 in1017.6 mb 30.07 in1018.3 mb 30.04 in1017.3 mb -
Hour Temp Dew Point Humidity Winds Wind Gusts Pressure Precip Precip Rate Daily Precip Total
05:00 AM 40.8°F4.9°C 34.5°F1.4°C 78% Calm Calm -- 30.05 in1017.6 mb - 0.00 in0.0 mm 0.00 in0.0 mm
04:50 AM 39.9°F4.4°C 33.6°F0.9°C 78% Calm Calm -- 30.05 in1017.6 mb - 0.00 in0.0 mm 0.00 in0.0 mm
04:40 AM 39.4°F4.1°C 33.1°F0.6°C 78% Calm Calm -- 30.05 in1017.6 mb - 0.00 in0.0 mm 0.00 in0.0 mm
04:30 AM 39.0°F3.9°C 32.7°F0.4°C 78% Calm Calm -- 30.05 in1017.6 mb - 0.00 in0.0 mm 0.00 in0.0 mm
04:20 AM 38.8°F3.8°C 32.6°F0.3°C 78% Calm Calm -- 30.05 in1017.6 mb - 0.00 in0.0 mm 0.00 in0.0 mm
04:10 AM 38.8°F3.8°C 32.2°F0.1°C 77% Calm Calm -- 30.05 in1017.6 mb - 0.00 in0.0 mm 0.00 in0.0 mm
04:00 AM 38.7°F3.7°C 32.1°F0.1°C 77% Calm Calm -- 30.05 in1017.6 mb - 0.00 in0.0 mm 0.00 in0.0 mm
03:50 AM 38.8°F3.8°C 32.2°F0.1°C 77% Calm Calm -- 30.05 in1017.6 mb - 0.00 in0.0 mm 0.00 in0.0 mm
03:40 AM 39.4°F4.1°C 32.8°F0.4°C 77% Calm Calm -- 30.06 in1017.9 mb - 0.00 in0.0 mm 0.00 in0.0 mm
03:30 AM 39.4°F4.1°C 32.8°F0.4°C 77% Calm Calm -- 30.06 in1017.9 mb - 0.00 in0.0 mm 0.00 in0.0 mm
03:20 AM 39.4°F4.1°C 32.8°F0.4°C 77% Calm Calm -- 30.05 in1017.6 mb - 0.00 in0.0 mm 0.00 in0.0 mm
03:10 AM 39.6°F4.2°C 32.9°F0.5°C 77% Calm Calm -- 30.05 in1017.6 mb - 0.00 in0.0 mm 0.00 in0.0 mm
03:00 AM 39.6°F4.2°C 32.9°F0.5°C 77% Calm Calm -- 30.04 in1017.3 mb - 0.00 in0.0 mm 0.00 in0.0 mm
02:50 AM 39.6°F4.2°C 32.9°F0.5°C 77% Calm Calm -- 30.04 in1017.3 mb - 0.00 in0.0 mm 0.00 in0.0 mm
02:40 AM 40.1°F4.5°C 33.5°F0.8°C 77% Calm Calm -- 30.07 in1018.3 mb - 0.00 in0.0 mm 0.00 in0.0 mm
02:30 AM 40.1°F4.5°C 33.5°F0.8°C 77% Calm Calm -- 30.07 in1018.3 mb - 0.00 in0.0 mm 0.00 in0.0 mm
02:20 AM 40.1°F4.5°C 33.5°F0.8°C 77% Calm Calm -- 30.05 in1017.6 mb - 0.00 in0.0 mm 0.00 in0.0 mm
02:10 AM 40.1°F4.5°C 33.5°F0.8°C 77% Calm Calm -- 30.05 in1017.6 mb - 0.00 in0.0 mm 0.00 in0.0 mm
02:00 AM 40.3°F4.6°C 33.6°F0.9°C 77% Calm Calm -- 30.06 in1017.9 mb - 0.00 in0.0 mm 0.00 in0.0 mm
01:50 AM 40.5°F4.7°C 33.5°F0.8°C 76% Calm Calm -- 30.06 in1017.9 mb - 0.00 in0.0 mm 0.00 in0.0 mm
01:40 AM 40.6°F4.8°C 33.7°F0.9°C 76% Calm Calm -- 30.06 in1017.9 mb - 0.00 in0.0 mm 0.00 in0.0 mm
01:30 AM 40.8°F4.9°C 33.8°F1.0°C 76% Calm Calm -- 30.06 in1017.9 mb - 0.00 in0.0 mm 0.00 in0.0 mm
01:20 AM 41.0°F5.0°C 34.0°F1.1°C 76% Calm Calm -- 30.06 in1017.9 mb - 0.00 in0.0 mm 0.00 in0.0 mm
01:10 AM 41.2°F5.1°C 34.2°F1.2°C 76% Calm Calm -- 30.06 in1017.9 mb - 0.00 in0.0 mm 0.00 in0.0 mm
01:00 AM 41.2°F5.1°C 34.2°F1.2°C 76% Calm Calm -- 30.06 in1017.9 mb - 0.00 in0.0 mm 0.00 in0.0 mm
12:50 AM 41.5°F5.3°C 34.5°F1.4°C 76% Calm Calm -- 30.06 in1017.9 mb - 0.00 in0.0 mm 0.00 in0.0 mm
12:40 AM 41.5°F5.3°C 34.2°F1.2°C 75% Calm Calm -- 30.06 in1017.9 mb - 0.00 in0.0 mm 0.00 in0.0 mm
12:30 AM 41.9°F5.5°C 34.6°F1.4°C 75% Calm Calm -- 30.06 in1017.9 mb - 0.00 in0.0 mm 0.00 in0.0 mm
12:20 AM 42.1°F5.6°C 34.7°F1.5°C 75% Calm Calm -- 30.06 in1017.9 mb - 0.00 in0.0 mm 0.00 in0.0 mm
12:10 AM 42.4°F5.8°C 35.1°F1.7°C 75% Calm Calm -- 30.06 in1017.9 mb - 0.00 in0.0 mm 0.00 in0.0 mm
12:00 AM 42.6°F5.9°C 35.2°F1.8°C 75% Calm Calm -- 30.06 in1017.9 mb - 0.00 in0.0 mm 0.00 in0.0 mm